Here is the Quick Look data you requested

The Data originates at the National Weather Service, and is made available here by the UAlbany Department of Atmospheric and Environmental Sciences

Surface Observations

KMTN 180154Z 13004KT 10SM -RA BKN011 OVC023 03/02 A2998=
KMTN 180215Z 14004KT 4SM RA OVC011 03/02 A2998=
KMTN 180245Z 00000KT 4SM RA OVC007 03/02 A3000 RMK LAST=
KMTN 180303Z AUTO 12006KT 4SM -RA BKN007 BKN025 OVC033 02/02 A2996 RMK AO2
 P0001=
KMTN 180403Z AUTO 14005KT 4SM -RA OVC007 02/02 A2994 RMK AO2=
KMTN 180421Z AUTO 15004KT 4SM -RA OVC005 02/02 A2993 RMK AO2 P0001=
KMTN 180442Z AUTO 12007KT 4SM -RA OVC005 02/02 A2989 RMK AO2 P0002=
KMTN 180503Z AUTO 15003KT 5SM DZ OVC005 02/02 A2991 RMK AO2=
KMTN 180542Z AUTO 13004KT 7SM RA OVC005 02/02 A2989 RMK AO2 P0001=
KMTN 180603Z AUTO 15005KT 7SM DZ OVC007 02/02 A2989 RMK AO2=
KMTN 180621Z AUTO 13009KT 5SM -RA BKN007 OVC015 02/02 A2986 RMK AO2=
KMTN 180642Z AUTO 12007KT 5SM RA BKN005 OVC010 02/02 A2984 RMK AO2 P0001=
KMTN 180703Z AUTO 13009KT 4SM -RA OVC005 03/03 A2981 RMK AO2 P0001=
KMTN 180803Z AUTO 00000KT 5SM RA OVC005 03/03 A2981 RMK AO2 P0001=
KMTN 180821Z AUTO 00000KT 2 1/2SM RA OVC005 03/03 A2981 RMK AO2 P0003=
KMTN 180842Z AUTO 00000KT 2 1/2SM RA OVC005 03/03 A2979 RMK AO2 VIS 1 1/2V4
 P0006=
KMTN 180903Z AUTO 00000KT 4SM RA OVC005 03/03 A2979 RMK AO2 P0001=
KMTN 180921Z AUTO 26003KT 4SM -RA OVC007 03/03 A2982 RMK AO2 P0002=
KMTN 180942Z AUTO 00000KT 5SM RA SCT008 BKN011 OVC022 03/03 A2981 RMK AO2 P0003=
KMTN 181003Z AUTO 00000KT 7SM -RA SCT012 OVC023 03/03 A2982 RMK AO2=
KMTN 181021Z AUTO 00000KT 5SM BR SCT023 OVC030 03/03 A2984 RMK AO2=
KMTN 181030Z AUTO 00000KT 5SM BR SCT023 SCT030 OVC035 03/03 A2981 RMK AO2=
KMTN 181045Z 00000KT 7SM SCT023 BKN030 OVC035 03/03 A2981 RMK FIRST=
KMTN 181145Z 00000KT 4SM BR BKN040 03/03 A2984=
KMTN 181250Z 00000KT 7SM BKN110 BKN190 04/04 A2987=
KMTN 181354Z 28010KT 10SM BKN140 BKN220 07/05 A2992=
KMTN 181445Z 26011G15KT 10SM BKN190 07/04 A2993=
KMTN 181554Z 26016G23KT 10SM BKN037 BKN045 BKN200 08/03 A2996=
KMTN 181650Z 28022G27KT 10SM BKN043 OVC049 08/02 A2998=
KMTN 181745Z 28022G27KT 10SM BKN049 BKN055 08/00 A3000=
KMTN 181745Z COR 28023G30KT 10SM BKN049 BKN055 08/00 A3000=
KMTN 181745Z 28022G27KT 10SM BKN049 BKN055 08/00 A3000=
KMTN 181845Z 27022G32KT 10SM BKN055 07/M01 A3004=
KMTN 181945Z 29017G24KT 10SM BKN055 08/M02 A3006=
KMTN 182045Z 27015G21KT 10SM SCT050 BKN055 07/M02 A3008=
KMTN 182145Z 30021G26KT 10SM SCT050 BKN065 06/M02 A3014=
KMTN 182245Z 29022G30KT 10SM BKN055 BKN065 OVC250 06/M02 A3020 RMK VIRGA NW-NE=
KMTN 182345Z 28017G24KT 10SM SCT049 BKN060 BKN075 04/M03 A3025=
KMTN 190045Z 31013KT 10SM BKN046 BKN060 BKN160 04/M03 A3030=
KMTN 190145Z 29015G20KT 10SM BKN050 03/M04 A3034=
KMTN 190245Z 29014G21KT 10SM SCT050 02/M05 A3036 RMK LAST=
KMTN 190303Z AUTO 28014G23KT 10SM CLR 02/M05 A3037 RMK AO2=
KMTN 190321Z AUTO 30015G21KT 10SM CLR 02/M06 A3038 RMK AO2=
KMTN 190342Z AUTO 28011G15KT 10SM CLR 01/M05 A3040 RMK AO2=
KMTN 190403Z AUTO 28012KT 10SM CLR 01/M05 A3040 RMK AO2=
KMTN 190421Z AUTO 28007KT 10SM CLR 00/M05 A3041 RMK AO2=
KMTN 190442Z AUTO 28013KT 10SM SCT047 01/M05 A3042 RMK AO2=
KMTN 190503Z AUTO 27011KT 10SM CLR 00/M05 A3043 RMK AO2=
KMTN 190521Z AUTO 28009KT 10SM CLR 00/M05 A3044 RMK AO2=
KMTN 190542Z AUTO 28009KT 10SM CLR 00/M05 A3045 RMK AO2=
KMTN 190603Z AUTO 28005KT 10SM SCT043 00/M05 A3046 RMK AO2=
KMTN 190621Z AUTO 28007KT 10SM SCT043 00/M05 A3046 RMK AO2=
KMTN 190642Z AUTO 28009KT 10SM SCT040 00/M05 A3047 RMK AO2=
KMTN 190703Z AUTO 31007KT 10SM SCT040 00/M06 A3049 RMK AO2=
KMTN 190721Z AUTO 30008KT 10SM CLR 00/M06 A3049 RMK AO2=
KMTN 190742Z AUTO 30006KT 10SM CLR 00/M06 A3050 RMK AO2=